Relevés horaires Schaffen (Belgique)


Relevés horaires à Schaffen - Jeudi 14 Nov. 2019
Heure UTC1 Température [°C] Vent [km/h] Hum. [%] Pres.4 [hPa] Visi. [Km] Nébu. [octa] Préc.5 [mm] Cond.
2m. Res. Ros. Dir.2 Vit. Moy. Raf.3
23:00 3.7 3.7 3.0 N 3.7 -- 3.7 95 1002.6(-0.6/3h) 9 -- -- --
22:00 4.8 4.8 3.1 NNO 1.9 -- 3.7 89 1003(-0.2/3h) 16 -- -- --
21:00 4.9 4.9 3.1 NNO 1.9 -- 5.6 88 1003.3(0.0/3h) 20 -- -- --
20:00 5.0 5.0 2.8 NNO 1.9 -- 3.7 86 1003.2(0.2/3h) 20 -- -- --
19:00 5.3 5.3 3.0 NNO 1.9 -- 5.6 85 1003.2(0.8/3h) 20 -- -- --
18:00 5.5 5.5 3.1 NNO 1.9 -- 13.0 84 1003.2(1.0/3h) 20 -- 0.1/12h
NA
17:00 6.0 6.0 2.9 NNO 1.9 -- 3.7 80 1003(1.0/3h) 20 -- -- --
16:00 6.0 6.0 2.9 NNO 1.9 -- 5.6 80 1002.3(1.2/3h) 20 -- -- --
15:00 6.4 6.4 3.0 S 3.7 9.3 13.0 79 1002.2(0.7/3h) 20 -- -- Ciel clair
14:00 6.7 5.8 2.7 S 5.6 -- 11.1 76 1001.8(0.8/3h) 20 -- -- --
13:00 6.6 5.2 2.7 S 7.4 -- 13.0 76 1001.1(0.6/3h) 20 -- -- NA
12:00 6.7 5.3 2.6 S 7.4 -- 20.4 75 1001.5(1.7/3h) 20 -- 0.1/6h
Il y a de la pluie faible et continue à la station au moment de l'observation
11:00 6.8 5 2.9 S 9.3 -- 20.4 76 1001(1.7/3h) 20 -- -- --
10:00 7.0 5.2 2.6 SSE 9.3 -- 16.7 74 1000.5(1.6/3h) 20 -- -- NA
09:00 6.4 5.5 2.7 SE 5.6 -- 14.8 77 999.7(1.4/3h) 20 -- -- Il y a de la pluie faible et continue à la station au moment de l'observation
08:00 6.1 4.6 2.3 SE 7.4 -- 11.1 77 999.3(1.3/3h) 20 -- -- --
07:00 5.5 3.9 2.6 SE 7.4 -- 14.8 82 998.9(0.8/3h) 20 -- -- --
06:00 5.4 3.3 2.5 SE 9.3 -- 14.8 82 998.2(0.0/3h) 20 -- -- --
05:00 5.0 3.3 2.7 ESE 7.4 -- 13.0 85 998(-1.0/3h) 20 -- -- --
04:00 4.7 2.9 2.9 ESE 7.4 -- 11.1 88 998(-1.3/3h) 20 -- -- --
03:00 4.7 3.5 3.0 SE 5.6 -- 9.3 89 998.3(-1.2/3h) 20 -- -- --
02:00 3.9 2.6 2.7 SE 5.6 -- 7.4 92 999(-0.8/3h) 20 -- -- --
01:00 4.1 4.1 3.1 SSE 3.7 -- 7.4 93 999.3(-1.0/3h) 17 -- -- --
00:00 4.9 3.7 3.5 SSE 5.6 -- 11.1 91 999.5(-1.3/3h) 19 -- -- NA

1 Coordinated Universal Time. Actuellement il est 23:00 locale et 21:00 UTC.

2 Le vent souffle depuis la direction indiquée vers la direction oposée.

3 Les rafales max. sont disponible 40 min après l'heure du relevé.

4 Pour les stations d'altitude (plus de 600m) le géopotentiel du niveau le plus proche de la pression obligatoire est indiqué.

5 Les stations disposant d'un diffuseur peuvent indiquer "trace". Cela signifie que des précipitations ont touchés le sol mais que la quantité est inférieure à 0.1 mm.

Récapitulatif de la journée
Température [°C] Vent [km/h] Ensoleillement4 [h] Precipitations totale5 [mm] Pression [Hpa]
Min1 Max.2 Moy.3 Max. Min Max.
3.7 7.1 9.3 20.4 0 h 0 min 0 998.0 1003.3

1 Température minimale relevée entre 18:00 UTC la veille et 18:00 UTC le jour donné.

2 Température maximale relevée entre 06:00 UTC le jour donné et 06:00 UTC le lendemain.

3 Vent moyen de la journée basé sur les relevés horaires.

4 Ensoleillement en heures relevé entre 06:00 UTC la veille et 06:00 UTC le jour donné.

5 Précipitations totales tombées entre 06:00 UTC la jour donné et 06:00 UTC le lendemain.

Graphiques horaires